createdAt,value
2018-01-22T00:00:48.032Z,20.93
2018-01-22T00:01:48.008Z,20.77
2018-01-22T00:02:47.986Z,20.84
2018-01-22T00:03:47.962Z,20.87
2018-01-22T00:04:47.941Z,20.92
2018-01-22T00:05:47.920Z,20.85
2018-01-22T00:06:47.899Z,20.81
2018-01-22T00:07:47.876Z,20.88
2018-01-22T00:08:47.853Z,20.95
2018-01-22T00:09:47.833Z,20.80
2018-01-22T00:10:47.810Z,20.67
2018-01-22T00:11:47.789Z,20.59
2018-01-22T00:12:47.766Z,20.82
2018-01-22T00:13:47.747Z,20.77
2018-01-22T00:14:47.724Z,20.55
2018-01-22T00:15:47.701Z,20.75
2018-01-22T00:16:47.679Z,20.58
2018-01-22T00:17:47.658Z,20.66
2018-01-22T00:18:47.636Z,20.58
2018-01-22T00:19:47.614Z,20.63
2018-01-22T00:20:47.592Z,20.65
2018-01-22T00:21:47.571Z,20.56
2018-01-22T00:22:47.548Z,20.58
2018-01-22T00:23:47.526Z,20.47
2018-01-22T00:24:47.505Z,20.50
2018-01-22T00:25:47.484Z,20.52
2018-01-22T00:26:47.462Z,20.29
2018-01-22T00:27:47.440Z,20.34
2018-01-22T00:28:47.418Z,20.29
2018-01-22T00:29:47.400Z,20.51
2018-01-22T00:30:47.376Z,20.41
2018-01-22T00:31:47.352Z,20.43
2018-01-22T00:32:47.331Z,20.51
2018-01-22T00:33:47.311Z,20.48
2018-01-22T00:34:47.289Z,20.39
2018-01-22T00:35:47.265Z,20.39
2018-01-22T00:36:47.245Z,20.52
2018-01-22T00:37:47.223Z,20.36
2018-01-22T00:38:47.202Z,20.55
2018-01-22T00:39:47.179Z,20.51
2018-01-22T00:40:47.157Z,20.58
2018-01-22T00:41:47.135Z,20.47
2018-01-22T00:42:47.116Z,20.40
2018-01-22T00:43:47.092Z,20.34
2018-01-22T00:44:47.070Z,20.28
2018-01-22T00:45:47.049Z,20.28
2018-01-22T00:46:47.027Z,20.19
2018-01-22T00:47:47.004Z,20.21
2018-01-22T00:48:46.983Z,20.29
2018-01-22T00:49:46.961Z,20.25
2018-01-22T00:50:46.940Z,20.14
2018-01-22T00:51:46.917Z,20.21
2018-01-22T00:52:46.896Z,20.03
2018-01-22T00:53:46.875Z,19.91
2018-01-22T00:54:46.855Z,20.03
2018-01-22T00:55:46.831Z,19.92
2018-01-22T00:56:46.810Z,20.22
2018-01-22T00:57:46.789Z,20.18
2018-01-22T00:58:46.767Z,20.19
2018-01-22T00:59:46.744Z,20.06
2018-01-22T01:00:46.723Z,20.19
2018-01-22T01:01:46.701Z,20.13
2018-01-22T01:02:46.681Z,20.18
2018-01-22T01:03:46.658Z,20.26
2018-01-22T01:04:46.637Z,20.22
2018-01-22T01:05:46.615Z,20.25
2018-01-22T01:06:46.594Z,20.32
2018-01-22T01:07:46.571Z,20.29
2018-01-22T01:08:46.550Z,20.11
2018-01-22T01:09:46.528Z,20.25
2018-01-22T01:10:46.506Z,20.26
2018-01-22T01:11:46.485Z,20.28
2018-01-22T01:12:46.463Z,20.06
2018-01-22T01:13:46.442Z,20.11
2018-01-22T01:14:46.419Z,20.10
2018-01-22T01:15:46.398Z,20.22
2018-01-22T01:16:46.375Z,20.07
2018-01-22T01:17:46.354Z,20.11
2018-01-22T01:18:46.331Z,19.96
2018-01-22T01:19:46.310Z,20.10
2018-01-22T01:20:46.289Z,20.22
2018-01-22T01:21:46.268Z,20.28
2018-01-22T01:22:46.246Z,20.03
2018-01-22T01:23:46.222Z,20.22
2018-01-22T01:24:46.201Z,20.19
2018-01-22T01:25:46.180Z,20.28
2018-01-22T01:26:46.158Z,20.26
2018-01-22T01:27:46.136Z,20.22
2018-01-22T01:28:46.114Z,20.26
2018-01-22T01:29:46.092Z,20.25
2018-01-22T01:30:46.070Z,20.06
2018-01-22T01:31:46.047Z,20.31
2018-01-22T01:32:46.025Z,20.13
2018-01-22T01:33:46.007Z,19.91
2018-01-22T01:34:46.024Z,19.96
2018-01-22T01:35:45.958Z,20.11
2018-01-22T01:36:45.937Z,20.09
2018-01-22T01:37:45.916Z,20.14
2018-01-22T01:38:45.894Z,20.14
2018-01-22T01:39:45.870Z,20.07
2018-01-22T01:40:45.850Z,20.31
2018-01-22T01:41:45.826Z,20.18
2018-01-22T01:42:45.805Z,20.25
2018-01-22T01:43:45.783Z,20.22
2018-01-22T01:44:45.761Z,20.21
2018-01-22T01:45:45.740Z,20.21
2018-01-22T01:46:45.718Z,20.16
2018-01-22T01:47:45.695Z,20.18
2018-01-22T01:48:45.673Z,20.21
2018-01-22T01:49:45.651Z,20.06
2018-01-22T01:50:45.630Z,20.07
2018-01-22T01:51:45.606Z,20.14
2018-01-22T01:52:45.584Z,20.21
2018-01-22T01:53:45.563Z,20.25
2018-01-22T01:54:45.541Z,20.06
2018-01-22T01:55:45.518Z,19.88
2018-01-22T01:56:45.497Z,19.85
2018-01-22T01:57:45.478Z,20.07
2018-01-22T01:58:45.459Z,20.16
2018-01-22T01:59:45.430Z,19.96
2018-01-22T02:00:45.408Z,20.28
2018-01-22T02:01:45.387Z,19.88
2018-01-22T02:02:45.365Z,19.86
2018-01-22T02:03:45.342Z,19.86
2018-01-22T02:04:45.339Z,19.91
2018-01-22T02:05:45.299Z,19.86
2018-01-22T02:06:45.277Z,19.92
2018-01-22T02:07:45.254Z,20.06
2018-01-22T02:08:45.232Z,20.07
2018-01-22T02:09:45.209Z,20.02
2018-01-22T02:10:45.188Z,19.91
2018-01-22T02:11:45.170Z,19.91
2018-01-22T02:12:45.143Z,19.96
2018-01-22T02:13:45.121Z,19.95
2018-01-22T02:14:45.099Z,19.91
2018-01-22T02:15:45.078Z,19.85
2018-01-22T02:16:45.055Z,19.89
2018-01-22T02:17:45.034Z,20.06
2018-01-22T02:18:45.012Z,20.04
2018-01-22T02:19:44.988Z,19.96
2018-01-22T02:20:44.967Z,19.89
2018-01-22T02:21:44.945Z,19.94
2018-01-22T02:22:44.922Z,19.92
2018-01-22T02:23:44.900Z,19.89
2018-01-22T02:24:44.884Z,19.79
2018-01-22T02:25:44.856Z,19.82
2018-01-22T02:26:44.835Z,19.89
2018-01-22T02:27:44.812Z,19.94
2018-01-22T02:28:44.817Z,19.91
2018-01-22T02:29:44.769Z,19.86
2018-01-22T02:30:44.750Z,19.73
2018-01-22T02:31:44.724Z,19.91
2018-01-22T02:32:44.704Z,19.79
2018-01-22T02:33:44.680Z,19.76
2018-01-22T02:34:44.658Z,19.89
2018-01-22T02:35:44.636Z,19.86
2018-01-22T02:36:44.615Z,19.86
2018-01-22T02:37:44.593Z,19.82
2018-01-22T02:38:44.570Z,19.77
2018-01-22T02:39:44.547Z,19.86
2018-01-22T02:40:44.526Z,19.73
2018-01-22T02:41:44.504Z,19.76
2018-01-22T02:42:44.482Z,19.79
2018-01-22T02:43:44.459Z,19.73
2018-01-22T02:44:44.439Z,19.73
2018-01-22T02:45:44.417Z,19.70
2018-01-22T02:46:44.399Z,19.94
2018-01-22T02:47:44.372Z,19.96
2018-01-22T02:48:44.350Z,19.85
2018-01-22T02:49:44.329Z,19.79
2018-01-22T02:50:44.307Z,19.86
2018-01-22T02:51:44.283Z,19.73
2018-01-22T02:52:44.262Z,19.82
2018-01-22T02:53:44.240Z,19.76
2018-01-22T02:54:44.220Z,19.77
2018-01-22T02:55:44.196Z,19.81
2018-01-22T02:56:44.174Z,19.81
2018-01-22T02:57:44.153Z,19.88
2018-01-22T02:58:44.132Z,19.79
2018-01-22T02:59:44.106Z,19.84
2018-01-22T03:00:44.085Z,19.94
2018-01-22T03:01:44.067Z,19.77
2018-01-22T03:02:44.042Z,19.71
2018-01-22T03:03:44.018Z,19.77
2018-01-22T03:04:43.997Z,19.85
2018-01-22T03:05:43.975Z,19.85
2018-01-22T03:06:43.952Z,19.81
2018-01-22T03:07:43.930Z,19.79
2018-01-22T03:08:43.911Z,19.81
2018-01-22T03:09:43.886Z,19.79
2018-01-22T03:10:43.863Z,19.84
2018-01-22T03:11:43.841Z,19.59
2018-01-22T03:12:43.819Z,19.70
2018-01-22T03:13:43.799Z,19.84
2018-01-22T03:14:43.775Z,19.84
2018-01-22T03:15:43.752Z,19.76
2018-01-22T03:16:43.730Z,19.76
2018-01-22T03:17:43.708Z,19.66
2018-01-22T03:18:43.686Z,19.82
2018-01-22T03:19:43.663Z,19.92
2018-01-22T03:20:43.641Z,19.91
2018-01-22T03:21:43.619Z,19.59
2018-01-22T03:22:43.597Z,19.82
2018-01-22T03:23:43.574Z,19.59
2018-01-22T03:24:43.554Z,19.70
2018-01-22T03:25:43.530Z,19.71
2018-01-22T03:26:43.508Z,19.81
2018-01-22T03:27:43.487Z,19.88
2018-01-22T03:28:43.462Z,19.82
2018-01-22T03:29:43.441Z,19.79
2018-01-22T03:30:43.422Z,19.69
2018-01-22T03:31:43.396Z,19.62
2018-01-22T03:32:43.374Z,19.54
2018-01-22T03:33:43.352Z,19.70
2018-01-22T03:34:43.330Z,19.70
2018-01-22T03:35:43.307Z,19.85
2018-01-22T03:36:43.283Z,19.71
2018-01-22T03:37:43.261Z,19.70
2018-01-22T03:38:43.241Z,19.70
2018-01-22T03:39:43.218Z,19.70
2018-01-22T03:40:43.196Z,19.47
2018-01-22T03:41:43.174Z,19.59
2018-01-22T03:42:43.152Z,19.51
2018-01-22T03:43:43.129Z,19.63
2018-01-22T03:44:43.107Z,19.63
2018-01-22T03:45:43.084Z,19.73
2018-01-22T03:46:43.063Z,19.62
2018-01-22T03:47:43.041Z,19.81
2018-01-22T03:48:43.019Z,19.79
2018-01-22T03:49:42.997Z,19.81
2018-01-22T03:50:42.975Z,19.96
2018-01-22T03:51:42.952Z,19.94
2018-01-22T03:52:42.929Z,20.07
2018-01-22T03:53:42.909Z,20.11
2018-01-22T03:54:42.886Z,20.11
2018-01-22T03:55:42.877Z,20.09
2018-01-22T03:56:42.840Z,20.03
2018-01-22T03:57:42.818Z,20.09
2018-01-22T03:58:42.796Z,20.29
2018-01-22T03:59:42.773Z,20.31
2018-01-22T04:00:42.752Z,20.26
2018-01-22T04:01:42.726Z,20.32
2018-01-22T04:02:42.705Z,20.36
2018-01-22T04:03:42.681Z,20.31
2018-01-22T04:04:42.658Z,20.34
2018-01-22T04:05:42.637Z,20.39
2018-01-22T04:06:42.614Z,20.39
2018-01-22T04:07:42.590Z,20.36
2018-01-22T04:08:42.568Z,20.55
2018-01-22T04:09:42.548Z,20.47
2018-01-22T04:10:42.522Z,20.55
2018-01-22T04:11:42.499Z,20.51
2018-01-22T04:12:42.477Z,20.47
2018-01-22T04:13:42.454Z,20.52
2018-01-22T04:14:42.432Z,20.59
2018-01-22T04:15:42.409Z,20.48
2018-01-22T04:16:42.386Z,20.59
2018-01-22T04:17:42.364Z,20.69
2018-01-22T04:18:42.340Z,20.56
2018-01-22T04:19:42.317Z,20.60
2018-01-22T04:20:42.296Z,20.62
2018-01-22T04:21:42.272Z,20.63
2018-01-22T04:22:42.251Z,20.80
2018-01-22T04:23:42.228Z,20.62
2018-01-22T04:24:42.205Z,20.56
2018-01-22T04:25:42.183Z,20.58
2018-01-22T04:26:42.160Z,20.55
2018-01-22T04:27:42.137Z,20.62
2018-01-22T04:28:42.115Z,20.50
2018-01-22T04:29:42.092Z,20.69
2018-01-22T04:30:42.071Z,20.59
2018-01-22T04:31:42.048Z,20.59
2018-01-22T04:32:42.025Z,20.65
2018-01-22T04:33:42.003Z,20.58
2018-01-22T04:34:41.988Z,20.72
2018-01-22T04:35:41.957Z,20.70
2018-01-22T04:36:41.934Z,20.66
2018-01-22T04:37:41.913Z,20.55
2018-01-22T04:38:41.891Z,20.58
2018-01-22T04:39:41.868Z,20.56
2018-01-22T04:40:41.845Z,20.56
2018-01-22T04:41:41.824Z,20.66
2018-01-22T04:42:41.800Z,20.59
2018-01-22T04:43:41.778Z,20.60
2018-01-22T04:44:41.755Z,20.67
2018-01-22T04:45:41.734Z,20.74
2018-01-22T04:46:41.712Z,20.59
2018-01-22T04:47:41.745Z,20.74
2018-01-22T04:48:41.667Z,20.63
2018-01-22T04:49:41.644Z,20.56
2018-01-22T04:50:41.623Z,20.52
2018-01-22T04:51:41.600Z,20.62
2018-01-22T04:52:41.576Z,20.56
2018-01-22T04:53:41.587Z,20.70
2018-01-22T04:54:41.534Z,20.60
2018-01-22T04:55:41.514Z,20.63
2018-01-22T04:56:41.488Z,20.75
2018-01-22T04:57:41.466Z,20.67
2018-01-22T04:58:41.443Z,20.78
2018-01-22T04:59:41.420Z,20.77
2018-01-22T05:00:41.399Z,20.66
2018-01-22T05:01:41.376Z,20.67
2018-01-22T05:02:41.355Z,20.74
2018-01-22T05:03:41.332Z,20.78
2018-01-22T05:04:41.310Z,20.78
2018-01-22T05:05:41.294Z,20.75
2018-01-22T05:06:41.272Z,20.63
2018-01-22T05:07:41.242Z,20.62
2018-01-22T05:08:41.220Z,20.63
2018-01-22T05:09:41.253Z,20.62
2018-01-22T05:10:41.178Z,20.62
2018-01-22T05:11:41.153Z,20.67
2018-01-22T05:12:41.131Z,20.74
2018-01-22T05:13:41.109Z,20.78
2018-01-22T05:14:41.087Z,20.80
2018-01-22T05:15:41.064Z,20.85
2018-01-22T05:16:41.043Z,20.78
2018-01-22T05:17:41.021Z,20.60
2018-01-22T05:18:40.999Z,20.69
2018-01-22T05:19:40.976Z,20.70
2018-01-22T05:20:40.953Z,20.62
2018-01-22T05:21:40.931Z,20.66
2018-01-22T05:22:40.910Z,20.59
2018-01-22T05:23:40.887Z,20.56
2018-01-22T05:24:40.865Z,20.47
2018-01-22T05:25:40.843Z,20.58
2018-01-22T05:26:40.820Z,20.67
2018-01-22T05:27:40.798Z,20.63
2018-01-22T05:28:40.776Z,20.75
2018-01-22T05:29:40.755Z,20.65
2018-01-22T05:30:40.733Z,20.66
2018-01-22T05:31:40.710Z,20.70
2018-01-22T05:32:40.688Z,20.60
2018-01-22T05:33:40.666Z,20.62
2018-01-22T05:34:40.642Z,20.62
2018-01-22T05:35:40.620Z,20.59
2018-01-22T05:36:40.598Z,20.70
2018-01-22T05:37:40.577Z,20.65
2018-01-22T05:38:40.805Z,20.65
2018-01-22T05:39:40.532Z,20.70
2018-01-22T05:40:40.509Z,20.63
2018-01-22T05:41:40.488Z,20.70
2018-01-22T05:42:40.466Z,20.60
2018-01-22T05:43:40.442Z,20.55
2018-01-22T05:44:40.421Z,20.72
2018-01-22T05:45:40.398Z,20.63
2018-01-22T05:46:40.377Z,20.69
2018-01-22T05:47:40.400Z,20.69
2018-01-22T05:48:40.331Z,20.80
2018-01-22T05:49:40.308Z,20.74
2018-01-22T05:50:40.286Z,20.81
2018-01-22T05:51:40.263Z,20.81
2018-01-22T05:52:40.241Z,20.78
2018-01-22T05:53:40.217Z,20.81
2018-01-22T05:54:40.197Z,20.96
2018-01-22T05:55:40.175Z,20.96
2018-01-22T05:56:40.151Z,20.84
2018-01-22T05:57:40.134Z,20.85
2018-01-22T05:58:40.107Z,20.96
2018-01-22T05:59:40.084Z,20.80
2018-01-22T06:00:40.061Z,20.82
2018-01-22T06:01:40.039Z,20.82
2018-01-22T06:02:40.017Z,20.77
2018-01-22T06:03:39.993Z,20.90
2018-01-22T06:04:39.971Z,20.95
2018-01-22T06:05:39.949Z,20.78
2018-01-22T06:06:39.927Z,20.99
2018-01-22T06:07:39.904Z,20.97
2018-01-22T06:08:39.882Z,20.97
2018-01-22T06:09:39.860Z,21.03
2018-01-22T06:10:39.838Z,20.97
2018-01-22T06:11:39.814Z,21.07
2018-01-22T06:12:39.792Z,20.93
2018-01-22T06:13:39.770Z,20.78
2018-01-22T06:14:39.750Z,20.97
2018-01-22T06:15:39.725Z,20.97
2018-01-22T06:16:39.702Z,20.85
2018-01-22T06:17:39.681Z,20.97
2018-01-22T06:18:39.658Z,20.96
2018-01-22T06:19:39.634Z,21.00
2018-01-22T06:20:39.612Z,20.97
2018-01-22T06:21:39.592Z,21.00
2018-01-22T06:22:39.568Z,20.97
2018-01-22T06:23:39.545Z,20.92
2018-01-22T06:24:39.523Z,21.03
2018-01-22T06:25:39.501Z,21.06
2018-01-22T06:26:39.479Z,21.07
2018-01-22T06:27:39.457Z,21.00
2018-01-22T06:28:39.440Z,21.07
2018-01-22T06:29:39.412Z,21.12
2018-01-22T06:30:39.442Z,21.03
2018-01-22T06:31:39.366Z,21.06
2018-01-22T06:32:39.344Z,21.03
2018-01-22T06:33:39.322Z,21.17
2018-01-22T06:34:39.301Z,21.11
2018-01-22T06:35:39.276Z,21.02
2018-01-22T06:36:39.255Z,21.03
2018-01-22T06:37:39.234Z,20.99
2018-01-22T06:38:39.212Z,20.99
2018-01-22T06:39:41.093Z,21.03
2018-01-22T06:40:39.166Z,21.07
2018-01-22T06:41:39.144Z,21.09
2018-01-22T06:42:39.122Z,21.17
2018-01-22T06:43:39.098Z,21.18
2018-01-22T06:44:39.078Z,21.21
2018-01-22T06:45:39.056Z,21.11
2018-01-22T06:46:39.034Z,21.15
2018-01-22T06:47:39.010Z,21.15
2018-01-22T06:48:38.989Z,21.11
2018-01-22T06:49:38.966Z,21.20
2018-01-22T06:50:38.944Z,21.14
2018-01-22T06:51:38.920Z,21.14
2018-01-22T06:52:38.900Z,21.20
2018-01-22T06:53:38.876Z,21.11
2018-01-22T06:54:38.856Z,21.27
2018-01-22T06:55:38.832Z,21.17
2018-01-22T06:56:38.810Z,21.27
2018-01-22T06:57:38.789Z,21.33
2018-01-22T06:58:38.767Z,21.14
2018-01-22T06:59:38.744Z,21.15
2018-01-22T07:00:38.722Z,21.07
2018-01-22T07:01:38.700Z,21.21
2018-01-22T07:02:38.677Z,21.29
2018-01-22T07:03:38.654Z,21.17
2018-01-22T07:04:38.633Z,21.15
2018-01-22T07:05:38.610Z,21.25
2018-01-22T07:06:38.589Z,21.35
2018-01-22T07:07:38.564Z,21.24
2018-01-22T07:08:38.545Z,21.20
2018-01-22T07:09:38.525Z,21.20
2018-01-22T07:10:38.500Z,21.22
2018-01-22T07:11:38.477Z,21.17
2018-01-22T07:12:38.455Z,21.24
2018-01-22T07:13:38.433Z,21.18
2018-01-22T07:14:38.412Z,21.30
2018-01-22T07:15:38.392Z,21.29
2018-01-22T07:16:38.401Z,21.06
2018-01-22T07:17:38.345Z,21.06
2018-01-22T07:18:38.323Z,21.22
2018-01-22T07:19:38.300Z,21.17
2018-01-22T07:20:38.278Z,21.21
2018-01-22T07:21:38.254Z,21.18
2018-01-22T07:22:38.233Z,21.17
2018-01-22T07:23:38.210Z,21.18
2018-01-22T07:24:38.188Z,21.12
2018-01-22T07:25:38.166Z,21.21
2018-01-22T07:26:38.146Z,21.20
2018-01-22T07:27:38.125Z,21.11
2018-01-22T07:28:38.100Z,21.11
2018-01-22T07:29:38.084Z,21.07
2018-01-22T07:30:38.057Z,21.12
2018-01-22T07:31:38.034Z,21.24
2018-01-22T07:32:38.012Z,21.12
2018-01-22T07:33:37.990Z,21.14
2018-01-22T07:34:37.968Z,21.18
2018-01-22T07:35:37.948Z,21.33
2018-01-22T07:36:37.923Z,21.15
2018-01-22T07:37:37.902Z,21.18
2018-01-22T07:38:37.880Z,21.30
2018-01-22T07:39:37.857Z,21.18
2018-01-22T07:40:37.836Z,21.09
2018-01-22T07:41:37.817Z,21.17
2018-01-22T07:42:37.792Z,21.14
2018-01-22T07:43:37.770Z,21.21
2018-01-22T07:44:37.747Z,21.18
2018-01-22T07:45:37.726Z,21.33
2018-01-22T07:46:37.704Z,21.20
2018-01-22T07:47:37.680Z,21.21
2018-01-22T07:48:37.659Z,21.18
2018-01-22T07:49:37.637Z,21.24
2018-01-22T07:50:37.616Z,21.17
2018-01-22T07:51:37.593Z,21.25
2018-01-22T07:52:37.570Z,21.22
2018-01-22T07:53:37.550Z,21.15
2018-01-22T07:54:37.529Z,21.18
2018-01-22T07:55:37.505Z,21.25
2018-01-22T07:56:37.483Z,21.18
2018-01-22T07:57:37.461Z,21.00
2018-01-22T07:58:37.440Z,21.27
2018-01-22T07:59:37.419Z,21.15
2018-01-22T08:00:37.395Z,21.20
2018-01-22T08:01:37.373Z,21.33
2018-01-22T08:02:37.352Z,21.18
2018-01-22T08:03:37.330Z,21.21
2018-01-22T08:04:37.308Z,21.20
2018-01-22T08:05:37.286Z,21.32
2018-01-22T08:06:37.265Z,21.24
2018-01-22T08:07:37.242Z,21.24
2018-01-22T08:08:37.219Z,21.27
2018-01-22T08:09:37.198Z,21.25
2018-01-22T08:10:37.178Z,21.25
2018-01-22T08:11:37.155Z,21.12
2018-01-22T08:12:37.133Z,21.18
2018-01-22T08:13:37.111Z,21.29
2018-01-22T08:14:37.093Z,21.14
2018-01-22T08:15:37.066Z,21.32
2018-01-22T08:16:37.044Z,21.27
2018-01-22T08:17:37.023Z,21.37
2018-01-22T08:18:37.002Z,21.43
2018-01-22T08:19:36.979Z,21.39
2018-01-22T08:20:36.958Z,21.35
2018-01-22T08:21:36.939Z,21.30
2018-01-22T08:22:36.914Z,21.32
2018-01-22T08:23:36.891Z,21.46
2018-01-22T08:24:36.873Z,21.39
2018-01-22T08:25:36.848Z,21.36
2018-01-22T08:26:36.826Z,21.37
2018-01-22T08:27:36.804Z,21.33
2018-01-22T08:28:36.782Z,21.20
2018-01-22T08:29:36.760Z,21.24
2018-01-22T08:30:36.740Z,21.27
2018-01-22T08:31:36.716Z,21.29
2018-01-22T08:32:36.696Z,21.35
2018-01-22T08:33:36.678Z,21.35
2018-01-22T08:34:36.652Z,21.32
2018-01-22T08:35:36.631Z,21.46
2018-01-22T08:36:36.607Z,21.30
2018-01-22T08:37:36.586Z,21.45
2018-01-22T08:38:36.564Z,21.48
2018-01-22T08:39:36.541Z,21.43
2018-01-22T08:40:36.520Z,21.42
2018-01-22T08:41:36.498Z,21.50
2018-01-22T08:42:36.478Z,21.54
2018-01-22T08:43:36.453Z,21.58
2018-01-22T08:44:36.432Z,21.62
2018-01-22T08:45:36.411Z,21.58
2018-01-22T08:46:36.390Z,21.55
2018-01-22T08:47:36.367Z,21.58
2018-01-22T08:48:36.344Z,21.54
2018-01-22T08:49:36.323Z,21.62
2018-01-22T08:50:36.302Z,21.62
2018-01-22T08:51:36.279Z,21.57
2018-01-22T08:52:36.258Z,21.67
2018-01-22T08:53:36.236Z,21.70
2018-01-22T08:54:36.215Z,21.62
2018-01-22T08:55:36.193Z,21.64
2018-01-22T08:56:36.172Z,21.52
2018-01-22T08:57:36.151Z,21.52
2018-01-22T08:58:36.129Z,21.50
2018-01-22T08:59:36.107Z,21.46
2018-01-22T09:00:36.085Z,21.60
2018-01-22T09:01:36.064Z,21.60
2018-01-22T09:02:36.042Z,21.54
2018-01-22T09:03:36.019Z,21.52
2018-01-22T09:04:35.997Z,21.55
2018-01-22T09:05:35.976Z,21.51
2018-01-22T09:06:35.954Z,21.48
2018-01-22T09:07:35.932Z,21.61
2018-01-22T09:08:35.911Z,21.57
2018-01-22T09:09:35.890Z,21.58
2018-01-22T09:10:35.868Z,21.60
2018-01-22T09:11:35.845Z,21.64
2018-01-22T09:12:35.827Z,21.58
2018-01-22T09:13:35.803Z,21.51
2018-01-22T09:14:35.781Z,21.54
2018-01-22T09:15:35.759Z,21.60
2018-01-22T09:16:35.736Z,21.62
2018-01-22T09:17:35.716Z,21.55
2018-01-22T09:18:35.692Z,21.58
2018-01-22T09:19:35.670Z,21.54
2018-01-22T09:20:35.649Z,21.54
2018-01-22T09:21:35.629Z,21.64
2018-01-22T09:22:35.605Z,21.58
2018-01-22T09:23:35.584Z,21.51
2018-01-22T09:24:35.561Z,21.48
2018-01-22T09:25:35.541Z,21.45
2018-01-22T09:26:35.520Z,21.46
2018-01-22T09:27:35.497Z,21.50
2018-01-22T09:28:35.476Z,21.54
2018-01-22T09:29:35.454Z,21.55
2018-01-22T09:30:35.432Z,21.45
2018-01-22T09:31:35.409Z,21.60
2018-01-22T09:32:35.388Z,21.75
2018-01-22T09:33:35.366Z,21.77
2018-01-22T09:34:35.346Z,21.88
2018-01-22T09:35:35.323Z,21.88
2018-01-22T09:36:35.301Z,21.66
2018-01-22T09:37:35.279Z,21.61
2018-01-22T09:38:35.259Z,21.62
2018-01-22T09:39:35.238Z,21.61
2018-01-22T09:40:35.214Z,21.54
2018-01-22T09:41:35.192Z,21.67
2018-01-22T09:42:35.172Z,21.60
2018-01-22T09:43:35.152Z,21.69
2018-01-22T09:44:35.127Z,21.67
2018-01-22T09:45:35.106Z,21.69
2018-01-22T09:46:35.085Z,21.75
2018-01-22T09:47:35.062Z,21.88
2018-01-22T09:48:35.040Z,21.85
2018-01-22T09:49:35.020Z,21.76
2018-01-22T09:50:34.998Z,21.66
2018-01-22T09:51:34.977Z,21.69
2018-01-22T09:52:34.953Z,21.79
2018-01-22T09:53:34.935Z,21.80
2018-01-22T09:54:34.910Z,21.89
2018-01-22T09:55:34.889Z,21.88
2018-01-22T09:56:34.868Z,21.89
2018-01-22T09:57:34.846Z,21.91
2018-01-22T09:58:34.824Z,21.91
2018-01-22T09:59:34.803Z,21.92
2018-01-22T10:00:34.781Z,21.83
2018-01-22T10:01:34.760Z,21.93
2018-01-22T10:02:34.738Z,21.93
2018-01-22T10:03:34.715Z,21.89
2018-01-22T10:04:34.697Z,22.02
2018-01-22T10:05:34.673Z,22.04
2018-01-22T10:06:34.652Z,22.10
2018-01-22T10:07:34.629Z,22.18
2018-01-22T10:08:34.608Z,22.35
2018-01-22T10:09:34.586Z,22.78
2018-01-22T10:10:34.565Z,23.34
2018-01-22T10:11:34.542Z,23.31
2018-01-22T10:12:34.520Z,23.09
2018-01-22T10:13:34.500Z,23.09
2018-01-22T10:14:34.479Z,23.32
2018-01-22T10:15:34.457Z,23.44
2018-01-22T10:16:34.434Z,23.39
2018-01-22T10:17:34.415Z,23.27
2018-01-22T10:18:34.393Z,23.02
2018-01-22T10:19:34.371Z,22.96
2018-01-22T10:20:34.349Z,23.02
2018-01-22T10:21:34.329Z,23.44
2018-01-22T10:22:34.308Z,24.21
2018-01-22T10:23:34.285Z,25.11
2018-01-22T10:24:34.265Z,25.51
2018-01-22T10:25:34.243Z,25.59
2018-01-22T10:26:34.222Z,25.69
2018-01-22T10:27:34.199Z,26.21
2018-01-22T10:28:34.179Z,26.16
2018-01-22T10:29:34.157Z,25.75
2018-01-22T10:30:34.137Z,25.38
2018-01-22T10:31:34.115Z,25.66
2018-01-22T10:32:34.094Z,26.28
2018-01-22T10:33:34.074Z,26.95
2018-01-22T10:34:34.053Z,27.08
2018-01-22T10:35:34.034Z,26.84
2018-01-22T10:36:34.009Z,26.96
2018-01-22T10:37:33.989Z,26.55
2018-01-22T10:38:33.973Z,26.31
2018-01-22T10:39:33.947Z,25.72
2018-01-22T10:40:33.929Z,25.25
2018-01-22T10:41:33.907Z,24.95
2018-01-22T10:42:33.886Z,24.57
2018-01-22T10:43:33.863Z,24.50
2018-01-22T10:44:33.844Z,24.45
2018-01-22T10:45:33.823Z,24.29
2018-01-22T10:46:33.804Z,24.32
2018-01-22T10:47:33.782Z,24.45
2018-01-22T10:48:33.761Z,24.81
2018-01-22T10:49:33.740Z,24.99
2018-01-22T10:50:33.719Z,25.21
2018-01-22T10:51:33.699Z,25.47
2018-01-22T10:52:33.678Z,25.80
2018-01-22T10:53:33.665Z,26.29
2018-01-22T10:54:33.676Z,26.96
2018-01-22T10:55:33.616Z,26.83
2018-01-22T10:56:33.595Z,26.83
2018-01-22T10:57:33.575Z,27.17
2018-01-22T10:58:33.555Z,28.08
2018-01-22T10:59:33.534Z,28.30
2018-01-22T11:00:33.513Z,28.27
2018-01-22T11:01:33.493Z,28.17
2018-01-22T11:02:33.473Z,27.77
2018-01-22T11:03:33.452Z,27.30
2018-01-22T11:04:33.432Z,27.17
2018-01-22T11:05:33.411Z,27.10
2018-01-22T11:06:33.398Z,26.74
2018-01-22T11:07:33.370Z,26.38
2018-01-22T11:08:33.351Z,26.60
2018-01-22T11:09:33.331Z,27.15
2018-01-22T11:10:33.313Z,27.65
2018-01-22T11:11:33.290Z,27.14
2018-01-22T11:12:33.270Z,26.71
2018-01-22T11:13:33.250Z,26.53
2018-01-22T11:14:33.230Z,26.47
2018-01-22T11:15:33.211Z,26.44
2018-01-22T11:16:33.189Z,26.15
2018-01-22T11:17:33.170Z,26.40
2018-01-22T11:18:33.150Z,26.05
2018-01-22T11:19:33.129Z,25.78
2018-01-22T11:20:33.108Z,25.53
2018-01-22T11:21:33.089Z,25.62
2018-01-22T11:22:33.073Z,25.48
2018-01-22T11:23:33.049Z,25.48
2018-01-22T11:24:33.028Z,25.53
2018-01-22T11:25:33.007Z,25.55
2018-01-22T11:26:32.991Z,25.55
2018-01-22T11:27:32.966Z,25.68
2018-01-22T11:28:32.947Z,26.05
2018-01-22T11:29:32.927Z,26.38
2018-01-22T11:30:32.907Z,27.08
2018-01-22T11:36:07.572Z,26.62
2018-01-22T11:37:07.551Z,26.71
2018-01-22T11:38:07.532Z,26.85
2018-01-22T11:39:07.510Z,26.99
2018-01-22T11:40:07.492Z,26.53
2018-01-22T11:41:07.471Z,26.18
2018-01-22T11:42:07.451Z,26.00
2018-01-22T11:43:07.430Z,25.81
2018-01-22T11:44:07.411Z,25.84
2018-01-22T11:45:07.391Z,26.10
2018-01-22T11:46:07.371Z,26.13
2018-01-22T11:47:07.350Z,26.02
2018-01-22T11:48:07.330Z,25.99
2018-01-22T11:49:07.308Z,25.88
2018-01-22T11:50:07.289Z,25.65
2018-01-22T11:51:07.270Z,25.38
2018-01-22T11:52:07.248Z,25.31
2018-01-22T11:53:07.228Z,25.23
2018-01-22T11:54:07.208Z,25.40
2018-01-22T11:55:07.187Z,25.55
2018-01-22T11:56:07.168Z,26.07
2018-01-22T11:57:07.147Z,26.52
2018-01-22T11:58:07.128Z,26.21
2018-01-22T11:59:07.108Z,26.06
2018-01-22T12:00:07.088Z,25.81
2018-01-22T12:01:07.106Z,25.72
2018-01-22T12:02:07.046Z,26.63
2018-01-22T12:03:07.026Z,26.77
2018-01-22T12:04:07.005Z,26.73
2018-01-22T12:05:06.986Z,26.60
2018-01-22T12:06:06.964Z,26.99
2018-01-22T12:07:06.944Z,27.52
2018-01-22T12:08:06.925Z,27.90
2018-01-22T12:09:06.911Z,28.08
2018-01-22T12:10:06.885Z,27.59
2018-01-22T12:11:06.865Z,27.73
2018-01-22T12:12:06.845Z,28.20
2018-01-22T12:13:06.825Z,28.75
2018-01-22T12:14:06.806Z,28.62
2018-01-22T12:15:06.784Z,27.85
2018-01-22T12:16:06.765Z,28.00
2018-01-22T12:17:06.747Z,27.65
2018-01-22T12:18:06.727Z,28.07
2018-01-22T12:19:06.705Z,28.32
2018-01-22T12:20:06.686Z,28.33
2018-01-22T12:21:06.669Z,28.37
2018-01-22T12:22:06.648Z,28.60
2018-01-22T12:23:06.637Z,28.93
2018-01-22T12:24:06.608Z,29.17
2018-01-22T12:25:06.590Z,28.69
2018-01-22T12:26:06.571Z,28.17
2018-01-22T12:27:06.550Z,27.78
2018-01-22T12:28:06.531Z,27.37
2018-01-22T12:29:06.512Z,27.02
2018-01-22T12:30:06.495Z,26.77
2018-01-22T12:31:06.474Z,26.59
2018-01-22T12:32:06.455Z,26.41
2018-01-22T12:33:06.435Z,26.06
2018-01-22T12:34:06.416Z,25.91
2018-01-22T12:35:06.395Z,25.73
2018-01-22T12:36:06.377Z,25.63
2018-01-22T12:37:06.357Z,25.58
2018-01-22T12:38:06.337Z,25.43
2018-01-22T12:39:06.317Z,25.29
2018-01-22T12:40:06.299Z,25.28
2018-01-22T12:41:06.279Z,25.14
2018-01-22T12:42:06.260Z,24.99
2018-01-22T12:43:06.239Z,24.85
2018-01-22T12:44:06.220Z,24.80
2018-01-22T12:45:06.200Z,24.63
2018-01-22T12:46:06.180Z,24.50
2018-01-22T12:47:06.160Z,24.45
2018-01-22T12:48:06.143Z,24.42
2018-01-22T12:49:06.120Z,24.29
2018-01-22T12:50:06.102Z,24.21
2018-01-22T12:51:06.080Z,24.17
2018-01-22T12:52:06.059Z,24.11
2018-01-22T12:53:06.039Z,24.01
2018-01-22T12:54:06.020Z,23.98
2018-01-22T12:55:05.999Z,24.02
2018-01-22T12:56:05.979Z,23.91
2018-01-22T12:57:05.959Z,23.99